Mulvane, KS

11:47 PM CDT on April 21, 2015 (GMT -0500)
East Helbert St. | | Change Station
CLOSE
Current Station
Personal Weather Station
Location: Mulvane, KS
Elevation: 1255 ft
Nearby Weather Stations

Elev 1255 ft 37.48 °N, 97.24 °W | Updated 1 minute ago

Partly Cloudy
Partly Cloudy
55.7 °F
Feels Like 55.7 °F
N
0.0
Wind Variable Wind from NNE
Gusts 0.0 mph

Today
High -- | Low -- °F
--% Chance of Precip.
Yesterday
High -- | Low -- °F
Precip. -- in
6:46 AM 8:09 PM
Waxing Crescent, 15% visible
Pressure 29.83 in
Visibility 10.0 miles
Clouds Few 14000 ft
Dew Point 51 °F
Humidity 85%
Rainfall 0.09 in
Snow Depth Not available.
UV 0 out of 12
Pollen 10.80 out of 12
Air Quality Not available.
Flu Activity Sporadic
METAR KIAB 220358Z AUTO 21009KT 10SM FEW140 17/09 A2984 RMK AO2 DZB09E19RAB19E38DZB38E41 SLP101 P0000 T01650087

More Conditions Fewer Conditions

Pressure 29.83 in
Visibility 10.0 miles
Clouds Few 14000 ft
Dew Point 51 °F
Humidity 85%
Rainfall 0.09 in
Snow Depth Not available.
UV 0 out of 12
Pollen 10.80 out of 12
Air Quality Not available.
Flu Activity Sporadic
METAR KIAB 220358Z AUTO 21009KT 10SM FEW140 17/09 A2984 RMK AO2 DZB09E19RAB19E38DZB38E41 SLP101 P0000 T01650087

More Conditions Fewer Conditions

10-Day Weather Forecast

Almanac

Astronomy

Apr. 21, 2015 Rise Set
Actual Time
Civil Twilight
Nautical Twilight
Astronomical Twilight
Moon
Length of Visible Light
Length of Day
Tomorrow will be .
, % of the Moon is Illuminated

Today's Extremes

State Highs State Lows

Community

WunderPhotos

Upload Photos

1,815,668 photos uploaded!

WunderBlogs® & News

Nearby

Air Quality

  Air Quality AQ Index Pollutant
Not available.

Snow Depth

Station Depth Elevation

Earthquake Activity

City Distance Mag. Time & Date
Minimum magnitude displayed is 2.5.

Coastal Water Temperatures

Place Temperature

Stations

Nearby Weather Stations

Station Location Temp. Windchill Dew Point Humidity Wind Precip. Elev Updated Type